createdAt,value
2019-02-19T00:01:38.917Z,17.20
2019-02-19T00:04:08.407Z,13.67
2019-02-19T00:06:37.706Z,15.43
2019-02-19T00:09:07.780Z,20.60
2019-02-19T00:11:37.103Z,19.73
2019-02-19T00:14:06.349Z,15.10
2019-02-19T00:16:35.609Z,14.57
2019-02-19T00:19:04.877Z,13.70
2019-02-19T00:21:34.132Z,12.43
2019-02-19T00:24:03.429Z,15.57
2019-02-19T00:26:32.716Z,14.10
2019-02-19T00:29:02.013Z,12.83
2019-02-19T00:31:31.303Z,15.60
2019-02-19T00:34:00.550Z,16.77
2019-02-19T00:36:29.823Z,14.30
2019-02-19T00:38:59.097Z,12.27
2019-02-19T00:41:28.359Z,15.77
2019-02-19T00:43:57.628Z,10.93
2019-02-19T00:46:26.909Z,14.50
2019-02-19T00:48:56.161Z,10.87
2019-02-19T00:51:25.404Z,12.17
2019-02-19T00:53:54.682Z,11.77
2019-02-19T00:56:24.084Z,14.00
2019-02-19T00:58:54.859Z,13.37
2019-02-19T01:01:24.107Z,14.07
2019-02-19T01:03:55.323Z,12.93
2019-02-19T01:06:24.579Z,14.27
2019-02-19T01:08:53.840Z,11.47
2019-02-19T01:11:23.145Z,12.90
2019-02-19T01:13:53.875Z,11.83
2019-02-19T01:16:23.141Z,12.07
2019-02-19T01:18:52.392Z,15.70
2019-02-19T01:21:21.719Z,15.47
2019-02-19T01:23:50.998Z,11.77
2019-02-19T01:26:20.254Z,11.77
2019-02-19T01:28:49.545Z,11.37
2019-02-19T01:31:20.579Z,11.93
2019-02-19T01:33:49.847Z,12.10
2019-02-19T01:36:19.183Z,11.60
2019-02-19T01:38:48.498Z,12.20
2019-02-19T01:41:17.760Z,16.43
2019-02-19T01:43:46.999Z,16.87
2019-02-19T01:46:16.274Z,11.43
2019-02-19T01:48:45.519Z,11.97
2019-02-19T01:51:14.826Z,11.90
2019-02-19T01:53:44.078Z,14.00
2019-02-19T01:56:13.387Z,15.77
2019-02-19T01:58:42.710Z,12.07
2019-02-19T02:01:11.959Z,13.30
2019-02-19T02:03:41.236Z,13.53
2019-02-19T02:06:10.536Z,13.30
2019-02-19T02:08:39.807Z,13.70
2019-02-19T02:11:09.051Z,18.10
2019-02-19T02:13:39.771Z,12.33
2019-02-19T02:16:09.025Z,10.73
2019-02-19T02:18:38.299Z,13.67
2019-02-19T02:21:07.568Z,12.70
2019-02-19T02:23:36.817Z,10.30
2019-02-19T02:26:06.116Z,99.07
2019-02-19T02:28:35.354Z,19.23
2019-02-19T02:31:04.660Z,16.23
2019-02-19T02:33:33.933Z,25.37
2019-02-19T02:36:03.190Z,22.60
2019-02-19T02:38:32.512Z,11.57
2019-02-19T02:41:01.770Z,11.00
2019-02-19T02:43:31.022Z,11.97
2019-02-19T02:46:00.305Z,16.10
2019-02-19T02:48:29.546Z,15.97
2019-02-19T02:50:58.863Z,31.30
2019-02-19T02:53:28.153Z,14.70
2019-02-19T02:55:57.427Z,19.70
2019-02-19T02:58:26.671Z,14.60
2019-02-19T03:00:56.078Z,14.80
2019-02-19T03:03:25.361Z,12.47
2019-02-19T03:06:05.663Z,11.63
2019-02-19T03:08:34.993Z,13.87
2019-02-19T03:11:04.288Z,18.07
2019-02-19T03:13:33.681Z,11.70
2019-02-19T03:16:02.936Z,13.37
2019-02-19T03:18:32.184Z,22.87
2019-02-19T03:21:01.466Z,21.20
2019-02-19T03:23:30.713Z,13.37
2019-02-19T03:26:00.006Z,10.97
2019-02-19T03:28:29.239Z,11.90
2019-02-19T03:30:58.511Z,10.30
2019-02-19T03:33:27.774Z,12.90
2019-02-19T03:35:57.027Z,12.43
2019-02-19T03:38:26.361Z,10.87
2019-02-19T03:40:55.609Z,11.50
2019-02-19T03:43:24.869Z,11.87
2019-02-19T03:45:54.154Z,11.10
2019-02-19T03:48:23.419Z,11.43
2019-02-19T03:50:52.696Z,12.40
2019-02-19T03:53:21.979Z,12.30
2019-02-19T03:55:51.224Z,12.27
2019-02-19T03:58:20.599Z,13.93
2019-02-19T04:00:49.945Z,12.77
2019-02-19T04:03:19.243Z,14.47
2019-02-19T04:05:48.624Z,12.57
2019-02-19T04:08:17.882Z,15.43
2019-02-19T04:10:47.175Z,13.87
2019-02-19T04:13:16.437Z,18.20
2019-02-19T04:15:45.709Z,19.40
2019-02-19T04:18:14.962Z,52.67
2019-02-19T04:20:44.220Z,25.73
2019-02-19T04:23:13.509Z,18.23
2019-02-19T04:25:42.838Z,33.10
2019-02-19T04:28:12.124Z,13.17
2019-02-19T04:30:41.412Z,15.10
2019-02-19T04:33:10.655Z,13.20
2019-02-19T04:35:39.937Z,10.70
2019-02-19T04:38:09.219Z,12.47
2019-02-19T04:40:38.538Z,13.03
2019-02-19T04:43:07.794Z,12.83
2019-02-19T04:45:37.061Z,10.87
2019-02-19T04:48:06.325Z,14.63
2019-02-19T04:50:35.570Z,14.77
2019-02-19T04:53:04.895Z,13.60
2019-02-19T04:55:34.171Z,13.70
2019-02-19T04:58:03.426Z,12.50
2019-02-19T05:00:32.707Z,12.17
2019-02-19T05:03:01.986Z,13.13
2019-02-19T05:05:31.300Z,11.37
2019-02-19T05:08:00.550Z,10.67
2019-02-19T05:10:29.805Z,13.03
2019-02-19T05:12:59.083Z,14.00
2019-02-19T05:15:28.331Z,13.87
2019-02-19T05:17:57.620Z,12.10
2019-02-19T05:20:26.870Z,12.80
2019-02-19T05:22:56.153Z,12.80
2019-02-19T05:25:25.423Z,12.07
2019-02-19T05:27:54.675Z,15.37
2019-02-19T05:30:23.952Z,16.33
2019-02-19T05:32:53.229Z,12.83
2019-02-19T05:35:22.520Z,13.03
2019-02-19T05:37:51.777Z,17.47
2019-02-19T05:40:21.084Z,14.33
2019-02-19T05:42:50.365Z,12.63
2019-02-19T05:45:19.647Z,14.93
2019-02-19T05:47:48.939Z,14.73
2019-02-19T05:50:18.244Z,13.00
2019-02-19T05:52:47.731Z,14.83
2019-02-19T05:55:19.367Z,12.97
2019-02-19T05:57:49.059Z,17.63
2019-02-19T06:00:18.969Z,15.30
2019-02-19T06:02:48.985Z,14.23
2019-02-19T06:05:18.903Z,15.00
2019-02-19T06:07:48.772Z,13.00
2019-02-19T06:10:19.485Z,15.00
2019-02-19T06:12:49.662Z,14.97
2019-02-19T06:15:20.123Z,12.17
2019-02-19T06:17:51.527Z,13.83
2019-02-19T06:20:22.392Z,13.33
2019-02-19T06:22:52.506Z,15.97
2019-02-19T06:25:23.047Z,13.27
2019-02-19T06:27:53.093Z,11.70
2019-02-19T06:30:22.931Z,14.70
2019-02-19T06:32:53.128Z,16.87
2019-02-19T06:35:23.499Z,13.07
2019-02-19T06:37:53.685Z,15.87
2019-02-19T06:40:27.992Z,15.80
2019-02-19T06:42:58.035Z,12.27
2019-02-19T06:45:29.331Z,12.57
2019-02-19T06:47:58.992Z,14.33
2019-02-19T06:50:29.158Z,20.77
2019-02-19T06:52:58.515Z,16.40
2019-02-19T06:55:27.764Z,13.43
2019-02-19T06:57:58.568Z,17.73
2019-02-19T07:00:27.868Z,14.47
2019-02-19T07:03:05.698Z,14.00
2019-02-19T07:05:34.953Z,15.13
2019-02-19T07:08:04.275Z,14.73
2019-02-19T07:10:33.525Z,20.70
2019-02-19T07:13:02.805Z,15.67
2019-02-19T07:15:32.220Z,16.27
2019-02-19T07:18:01.487Z,16.53
2019-02-19T07:20:30.763Z,14.13
2019-02-19T07:23:00.070Z,17.60
2019-02-19T07:25:29.353Z,20.63
2019-02-19T07:27:58.645Z,18.80
2019-02-19T07:30:27.971Z,14.93
2019-02-19T07:32:57.256Z,19.37
2019-02-19T07:35:26.550Z,19.30
2019-02-19T07:37:55.803Z,17.03
2019-02-19T07:40:25.080Z,17.40
2019-02-19T07:42:54.386Z,18.23
2019-02-19T07:45:23.669Z,17.63
2019-02-19T07:47:52.989Z,15.80
2019-02-19T07:50:22.328Z,16.97
2019-02-19T07:52:52.717Z,21.53
2019-02-19T07:55:21.981Z,20.70
2019-02-19T07:57:51.289Z,16.13
2019-02-19T08:00:20.649Z,19.23
2019-02-19T08:02:49.946Z,20.47
2019-02-19T08:05:19.242Z,21.67
2019-02-19T08:07:48.532Z,17.37
2019-02-19T08:10:17.814Z,19.40
2019-02-19T08:12:47.513Z,18.67
2019-02-19T08:15:16.766Z,14.50
2019-02-19T08:17:46.126Z,20.00
2019-02-19T08:20:16.397Z,23.43
2019-02-19T08:22:45.779Z,19.57
2019-02-19T08:25:15.026Z,18.50
2019-02-19T08:27:44.332Z,20.97
2019-02-19T08:30:13.681Z,25.00
2019-02-19T08:32:43.044Z,19.10
2019-02-19T08:35:12.400Z,20.70
2019-02-19T08:37:41.729Z,20.27
2019-02-19T08:40:11.085Z,16.10
2019-02-19T08:42:40.383Z,16.50
2019-02-19T08:45:14.543Z,18.47
2019-02-19T08:47:43.828Z,19.47
2019-02-19T08:50:13.078Z,20.70
2019-02-19T08:52:42.366Z,16.77
2019-02-19T08:55:11.653Z,21.40
2019-02-19T08:57:40.917Z,18.10
2019-02-19T09:00:11.017Z,16.60
2019-02-19T09:02:40.313Z,18.23
2019-02-19T09:05:09.669Z,18.97
2019-02-19T09:07:40.097Z,17.33
2019-02-19T09:10:10.073Z,15.67
2019-02-19T09:12:39.366Z,15.07
2019-02-19T09:15:11.256Z,18.20
2019-02-19T09:17:40.641Z,15.33
2019-02-19T09:20:10.045Z,18.40
2019-02-19T09:22:39.296Z,12.10
2019-02-19T09:25:08.713Z,10.80
2019-02-19T09:27:39.783Z,11.23
2019-02-19T09:30:11.089Z,13.57
2019-02-19T09:32:40.373Z,12.13
2019-02-19T09:35:09.954Z,13.67
2019-02-19T09:37:39.341Z,12.40
2019-02-19T09:40:09.175Z,10.77
2019-02-19T09:42:38.594Z,10.63
2019-02-19T09:45:08.598Z,7.87
2019-02-19T09:47:37.871Z,12.97
2019-02-19T09:50:07.773Z,11.33
2019-02-19T09:52:37.037Z,10.03
2019-02-19T09:55:06.456Z,14.60
2019-02-19T09:57:35.723Z,9.67
2019-02-19T10:00:07.010Z,11.43
2019-02-19T10:02:36.263Z,9.97
2019-02-19T10:05:06.549Z,10.97
2019-02-19T10:07:35.848Z,7.80
2019-02-19T10:10:06.241Z,8.63
2019-02-19T10:12:35.521Z,13.37
2019-02-19T10:15:05.204Z,7.57
2019-02-19T10:17:34.469Z,8.63
2019-02-19T10:20:03.855Z,10.90
2019-02-19T10:22:33.147Z,9.20
2019-02-19T10:25:02.565Z,8.63
2019-02-19T10:27:31.839Z,9.27
2019-02-19T10:30:01.099Z,9.67
2019-02-19T10:32:30.374Z,8.27
2019-02-19T10:34:59.663Z,11.27
2019-02-19T10:37:28.937Z,8.27
2019-02-19T10:39:58.226Z,6.97
2019-02-19T10:42:27.500Z,7.93
2019-02-19T10:44:56.771Z,8.27
2019-02-19T10:47:26.022Z,5.80
2019-02-19T10:49:55.311Z,6.03
2019-02-19T10:52:24.697Z,8.17
2019-02-19T10:54:53.992Z,5.03
2019-02-19T10:57:23.350Z,5.93
2019-02-19T10:59:52.603Z,5.13
2019-02-19T11:02:21.929Z,6.23
2019-02-19T11:04:51.181Z,7.37
2019-02-19T11:07:20.512Z,6.80
2019-02-19T11:09:49.780Z,5.50
2019-02-19T11:12:19.451Z,6.17
2019-02-19T11:14:49.709Z,7.40
2019-02-19T11:17:19.852Z,5.73
2019-02-19T11:19:49.284Z,5.03
2019-02-19T11:22:18.592Z,5.23
2019-02-19T11:24:47.865Z,7.83
2019-02-19T11:27:17.128Z,5.23
2019-02-19T11:29:46.425Z,4.10
2019-02-19T11:32:15.716Z,3.70
2019-02-19T11:34:44.976Z,5.57
2019-02-19T11:37:14.245Z,6.93
2019-02-19T11:39:43.504Z,5.43
2019-02-19T11:42:12.810Z,4.00
2019-02-19T11:44:42.068Z,4.20
2019-02-19T11:47:11.429Z,4.77
2019-02-19T11:49:40.686Z,5.67
2019-02-19T11:52:09.949Z,4.83
2019-02-19T11:54:39.236Z,5.13
2019-02-19T11:57:08.490Z,5.03
2019-02-19T11:59:37.790Z,6.17
2019-02-19T12:02:11.817Z,6.77
2019-02-19T12:04:41.101Z,5.07
2019-02-19T12:07:10.372Z,6.80
2019-02-19T12:09:39.677Z,4.83
2019-02-19T12:12:08.966Z,13.97
2019-02-19T12:14:38.231Z,8.70
2019-02-19T12:17:07.509Z,26.53
2019-02-19T12:19:36.778Z,13.53
2019-02-19T12:22:06.097Z,7.43
2019-02-19T12:24:35.348Z,7.33
2019-02-19T12:27:04.630Z,6.50
2019-02-19T12:29:33.910Z,4.77
2019-02-19T12:32:03.284Z,4.77
2019-02-19T12:34:34.036Z,7.00
2019-02-19T12:37:03.332Z,6.37
2019-02-19T12:39:32.584Z,4.87
2019-02-19T12:42:01.862Z,7.07
2019-02-19T12:44:31.168Z,6.73
2019-02-19T12:47:00.465Z,5.53
2019-02-19T12:49:29.708Z,4.67
2019-02-19T12:51:58.991Z,5.37
2019-02-19T12:54:28.329Z,7.07
2019-02-19T12:56:57.592Z,6.23
2019-02-19T12:59:26.877Z,6.20
2019-02-19T13:01:56.168Z,9.60
2019-02-19T13:04:25.487Z,5.90
2019-02-19T13:06:54.753Z,7.03
2019-02-19T13:09:24.252Z,6.10
2019-02-19T13:11:53.507Z,10.13
2019-02-19T13:14:22.780Z,12.27
2019-02-19T13:16:53.155Z,7.47
2019-02-19T13:19:22.407Z,7.50
2019-02-19T13:21:51.696Z,6.93
2019-02-19T13:24:20.956Z,8.93
2019-02-19T13:26:50.237Z,6.90
2019-02-19T13:29:19.487Z,8.03
2019-02-19T13:31:48.800Z,7.07
2019-02-19T13:34:18.141Z,6.43
2019-02-19T13:36:47.409Z,9.33
2019-02-19T13:39:16.711Z,8.43
2019-02-19T13:41:45.981Z,11.23
2019-02-19T13:44:15.263Z,10.00
2019-02-19T13:46:44.521Z,7.50
2019-02-19T13:49:13.798Z,8.13
2019-02-19T13:51:44.516Z,7.83
2019-02-19T13:54:27.616Z,8.37
2019-02-19T13:56:56.914Z,8.30
2019-02-19T13:59:26.241Z,9.60
2019-02-19T14:01:55.512Z,9.97
2019-02-19T14:04:24.797Z,10.77
2019-02-19T14:06:54.130Z,11.27
2019-02-19T14:09:23.435Z,9.03
2019-02-19T14:11:52.746Z,16.17
2019-02-19T14:14:33.647Z,7.77
2019-02-19T14:17:06.298Z,7.93
2019-02-19T14:19:42.429Z,10.17
2019-02-19T14:22:38.806Z,7.10
2019-02-19T14:25:30.358Z,7.83
2019-02-19T14:28:18.590Z,8.03
2019-02-19T14:31:05.535Z,8.77
2019-02-19T14:33:53.755Z,6.03
2019-02-19T14:36:44.771Z,9.17
2019-02-19T14:39:42.132Z,7.53
2019-02-19T14:42:29.513Z,7.93
2019-02-19T14:45:16.397Z,10.93
2019-02-19T14:48:03.261Z,11.07
2019-02-19T14:50:54.789Z,9.73
2019-02-19T14:53:52.717Z,10.53
2019-02-19T14:56:32.237Z,8.47
2019-02-19T14:59:16.451Z,12.57
2019-02-19T15:02:03.679Z,9.67
2019-02-19T15:04:54.674Z,10.33
2019-02-19T15:07:35.265Z,12.53
2019-02-19T15:10:26.540Z,10.30
2019-02-19T15:13:03.846Z,9.50
2019-02-19T15:15:51.235Z,8.77
2019-02-19T15:18:45.685Z,12.43
2019-02-19T15:21:36.826Z,10.33
2019-02-19T15:24:32.776Z,10.40
2019-02-19T15:27:36.382Z,11.77
2019-02-19T15:30:25.735Z,9.00
2019-02-19T15:33:16.997Z,10.13
2019-02-19T15:36:17.367Z,10.17
2019-02-19T15:38:56.780Z,9.90
2019-02-19T15:41:43.682Z,9.87
2019-02-19T15:44:30.256Z,10.67
2019-02-19T15:47:24.542Z,10.03
2019-02-19T15:50:18.745Z,8.37
2019-02-19T15:53:13.083Z,11.03
2019-02-19T15:55:53.333Z,9.87
2019-02-19T15:58:31.150Z,9.97
2019-02-19T16:01:34.840Z,10.13
2019-02-19T16:04:31.989Z,11.10
2019-02-19T16:07:22.955Z,8.53
2019-02-19T16:10:04.592Z,9.10
2019-02-19T16:12:52.816Z,11.03
2019-02-19T16:15:39.959Z,11.10
2019-02-19T16:18:21.819Z,12.67
2019-02-19T16:21:09.686Z,10.00
2019-02-19T16:23:52.938Z,11.57
2019-02-19T16:26:41.687Z,13.47
2019-02-19T16:29:18.373Z,14.93
2019-02-19T16:32:21.824Z,15.73
2019-02-19T16:35:00.332Z,14.13
2019-02-19T16:37:43.226Z,12.17
2019-02-19T16:40:31.412Z,14.23
2019-02-19T16:43:11.888Z,12.50
2019-02-19T16:45:51.915Z,15.43
2019-02-19T16:48:55.399Z,12.80
2019-02-19T16:51:48.554Z,11.47
2019-02-19T16:54:42.267Z,14.23
2019-02-19T16:57:39.656Z,13.73
2019-02-19T17:00:25.331Z,15.67
2019-02-19T17:03:02.621Z,12.03
2019-02-19T17:05:46.484Z,10.80
2019-02-19T17:08:36.236Z,14.00
2019-02-19T17:11:42.831Z,13.70
2019-02-19T17:14:33.723Z,18.07
2019-02-19T17:17:22.609Z,16.57
2019-02-19T17:20:21.035Z,25.80
2019-02-19T17:23:05.731Z,18.63
2019-02-19T17:25:50.624Z,18.73
2019-02-19T17:28:38.842Z,19.50
2019-02-19T17:31:19.051Z,16.93
2019-02-19T17:34:06.452Z,15.63
2019-02-19T17:36:44.941Z,16.43
2019-02-19T17:39:36.018Z,18.23
2019-02-19T17:42:39.361Z,17.00
2019-02-19T17:45:19.023Z,14.70
2019-02-19T17:48:10.107Z,15.47
2019-02-19T17:51:05.210Z,14.40
2019-02-19T17:53:41.656Z,18.33
2019-02-19T17:56:31.469Z,14.83
2019-02-19T17:59:10.864Z,14.53
2019-02-19T18:02:14.949Z,16.80
2019-02-19T18:05:01.515Z,16.77
2019-02-19T18:07:59.856Z,16.40
2019-02-19T18:11:00.546Z,16.97
2019-02-19T18:13:45.576Z,17.57
2019-02-19T18:16:32.502Z,15.47
2019-02-19T18:19:01.821Z,14.67
2019-02-19T18:21:34.596Z,17.93
2019-02-19T18:24:05.013Z,17.33
2019-02-19T18:26:35.538Z,16.53
2019-02-19T18:29:05.320Z,18.83
2019-02-19T18:31:34.833Z,14.87
2019-02-19T18:34:05.308Z,17.40
2019-02-19T18:36:36.342Z,20.23
2019-02-19T18:39:07.434Z,20.27
2019-02-19T18:41:36.749Z,20.33
2019-02-19T18:44:06.098Z,19.50
2019-02-19T18:46:36.836Z,17.20
2019-02-19T18:49:06.553Z,16.63
2019-02-19T18:51:36.201Z,19.53
2019-02-19T18:54:05.552Z,20.87
2019-02-19T18:56:35.996Z,25.83
2019-02-19T18:59:05.310Z,20.30
2019-02-19T19:01:34.722Z,21.63
2019-02-19T19:04:06.251Z,21.03
2019-02-19T19:06:35.591Z,23.83
2019-02-19T19:09:07.361Z,20.90
2019-02-19T19:11:38.885Z,20.93
2019-02-19T19:14:08.857Z,22.73
2019-02-19T19:16:39.122Z,21.97
2019-02-19T19:19:08.452Z,24.67
2019-02-19T19:21:38.122Z,23.77
2019-02-19T19:24:10.026Z,24.13
2019-02-19T19:26:39.327Z,35.37
2019-02-19T19:29:08.681Z,32.23
2019-02-19T19:31:38.203Z,30.33
2019-02-19T19:34:09.370Z,24.27
2019-02-19T19:36:41.465Z,25.80
2019-02-19T19:39:12.652Z,22.77
2019-02-19T19:41:43.868Z,18.60
2019-02-19T19:44:13.633Z,23.60
2019-02-19T19:46:44.777Z,24.33
2019-02-19T19:49:15.931Z,22.00
2019-02-19T19:51:48.091Z,25.20
2019-02-19T19:54:17.773Z,26.13
2019-02-19T19:56:48.831Z,28.23
2019-02-19T19:59:19.793Z,26.10
2019-02-19T20:01:49.593Z,23.90
2019-02-19T20:04:20.249Z,24.03
2019-02-19T20:06:52.991Z,25.60
2019-02-19T20:09:24.401Z,24.77
2019-02-19T20:11:54.064Z,25.27
2019-02-19T20:14:23.770Z,23.80
2019-02-19T20:16:55.261Z,23.90
2019-02-19T20:19:24.829Z,25.37
2019-02-19T20:21:56.471Z,27.83
2019-02-19T20:24:27.934Z,26.17
2019-02-19T20:26:57.231Z,27.23
2019-02-19T20:29:26.548Z,25.70
2019-02-19T20:31:55.800Z,26.50
2019-02-19T20:34:25.122Z,25.63
2019-02-19T20:36:54.401Z,26.20
2019-02-19T20:39:24.036Z,25.53
2019-02-19T20:41:53.399Z,29.73
2019-02-19T20:44:23.983Z,24.33
2019-02-19T20:46:55.914Z,26.33
2019-02-19T20:49:25.636Z,26.50
2019-02-19T20:51:54.986Z,23.50
2019-02-19T20:54:24.629Z,25.77
2019-02-19T20:56:54.157Z,23.93
2019-02-19T20:59:23.449Z,24.30
2019-02-19T21:01:53.084Z,21.17
2019-02-19T21:04:22.661Z,24.37
2019-02-19T21:06:53.894Z,21.37
2019-02-19T21:09:23.362Z,25.17
2019-02-19T21:11:52.836Z,24.67
2019-02-19T21:14:22.165Z,28.53
2019-02-19T21:16:51.725Z,25.83
2019-02-19T21:19:21.293Z,29.27
2019-02-19T21:21:50.564Z,26.33
2019-02-19T21:24:20.207Z,27.90
2019-02-19T21:26:49.766Z,29.83
2019-02-19T21:29:19.328Z,26.70
2019-02-19T21:31:48.887Z,25.60
2019-02-19T21:34:18.538Z,28.07
2019-02-19T21:36:48.125Z,27.27
2019-02-19T21:39:17.917Z,35.07
2019-02-19T21:41:47.472Z,29.13
2019-02-19T21:44:17.085Z,26.17
2019-02-19T21:46:46.412Z,29.23
2019-02-19T21:49:15.694Z,31.30
2019-02-19T21:51:53.740Z,29.33
2019-02-19T21:54:17.162Z,31.90
2019-02-19T21:56:46.440Z,34.17
2019-02-19T21:59:15.712Z,32.30
2019-02-19T22:01:45.068Z,30.70
2019-02-19T22:04:14.353Z,30.93
2019-02-19T22:06:43.630Z,32.47
2019-02-19T22:09:12.925Z,33.13
2019-02-19T22:11:42.414Z,28.47
2019-02-19T22:14:11.646Z,29.53
2019-02-19T22:16:40.916Z,38.87
2019-02-19T22:19:10.208Z,32.60
2019-02-19T22:21:44.310Z,32.37
2019-02-19T22:24:13.567Z,28.77
2019-02-19T22:26:42.862Z,29.27
2019-02-19T22:29:12.154Z,29.53
2019-02-19T22:31:41.426Z,31.53
2019-02-19T22:34:10.695Z,33.50
2019-02-19T22:36:39.976Z,33.20
2019-02-19T22:39:09.289Z,30.20
2019-02-19T22:41:38.569Z,33.00
2019-02-19T22:44:07.812Z,28.33
2019-02-19T22:46:38.564Z,37.33
2019-02-19T22:49:07.916Z,35.07
2019-02-19T22:51:37.198Z,32.17
2019-02-19T22:54:14.691Z,32.30
2019-02-19T22:56:45.357Z,32.30
2019-02-19T22:59:14.624Z,32.70
2019-02-19T23:01:57.155Z,33.27
2019-02-19T23:04:27.600Z,29.10
2019-02-19T23:06:56.897Z,33.20
2019-02-19T23:09:26.142Z,32.50
2019-02-19T23:11:55.397Z,31.03
2019-02-19T23:14:24.732Z,32.60
2019-02-19T23:16:53.988Z,35.53
2019-02-19T23:19:23.305Z,28.97
2019-02-19T23:21:52.568Z,35.13
2019-02-19T23:24:21.817Z,31.93
2019-02-19T23:26:51.172Z,34.63
2019-02-19T23:29:20.467Z,35.10
2019-02-19T23:31:49.760Z,34.20
2019-02-19T23:34:19.069Z,35.80
2019-02-19T23:36:51.509Z,40.27
2019-02-19T23:39:20.784Z,31.10
2019-02-19T23:41:50.084Z,33.00
2019-02-19T23:44:19.341Z,30.67
2019-02-19T23:46:48.620Z,33.67
2019-02-19T23:49:17.897Z,33.13
2019-02-19T23:51:47.150Z,30.90
2019-02-19T23:54:16.455Z,28.97
2019-02-19T23:56:45.713Z,33.30
2019-02-19T23:59:14.966Z,33.83
